Time;durP1;ratioP1;P1;durP2;ratioP2;P2;SDS_P1;SDS_P2;PMS_P1;PMS_P2;Temp;Humidity;BMP_temperature;BMP_pressure;BME280_temperature;BME280_humidity;BME280_pressure;Samples;Min_cycle;Max_cycle;Signal;HPM_P1;HPM_P2
2024/01/18 00:01:08;;;;;;;0.50;0.22;;;;;;;;;;5070034;28;20515;-76
2024/01/18 00:03:36;;;;;;;2.47;0.30;;;;;;;;;;5052149;28;20048;-74
2024/01/18 00:06:02;;;;;;;0.20;0.20;;;;;;;;;;5069746;28;20033;-74
2024/01/18 00:08:27;;;;;;;0.20;0.20;;;;;;;;;;5069721;28;20055;-74
2024/01/18 00:10:53;;;;;;;0.10;0.10;;;;;;;;;;5051939;28;20063;-73
2024/01/18 00:13:19;;;;;;;0.10;0.10;;;;;;;;;;5069703;28;20365;-73
2024/01/18 00:15:44;;;;;;;0.20;0.20;;;;;;;;;;5070113;28;20031;-73
2024/01/18 00:18:11;;;;;;;0.10;0.10;;;;;;;;;;5073384;28;20033;-74
2024/01/18 00:20:36;;;;;;;0.10;0.10;;;;;;;;;;5073330;28;20146;-73
2024/01/18 00:23:02;;;;;;;0.20;0.20;;;;;;;;;;5073615;28;20056;-74
2024/01/18 00:25:27;;;;;;;0.10;0.10;;;;;;;;;;5074095;28;20047;-74
2024/01/18 00:27:53;;;;;;;0.15;0.15;;;;;;;;;;5076016;28;20472;-74
2024/01/18 00:30:19;;;;;;;0.10;0.10;;;;;;;;;;5076277;28;20032;-73
2024/01/18 00:32:44;;;;;;;0.10;0.10;;;;;;;;;;5073512;28;20050;-73
2024/01/18 00:35:10;;;;;;;0.10;0.10;;;;;;;;;;5073280;28;20040;-74
2024/01/18 00:37:36;;;;;;;0.10;0.10;;;;;;;;;;5073452;28;20388;-74
2024/01/18 00:40:01;;;;;;;0.10;0.10;;;;;;;;;;5073353;28;20420;-73
2024/01/18 00:42:27;;;;;;;0.10;0.10;;;;;;;;;;5073356;28;20048;-74
2024/01/18 00:44:52;;;;;;;0.17;0.17;;;;;;;;;;5073169;28;20029;-74
2024/01/18 00:47:18;;;;;;;0.10;0.10;;;;;;;;;;5075701;28;20424;-74
2024/01/18 00:49:44;;;;;;;0.22;0.20;;;;;;;;;;5059643;28;20029;-74
2024/01/18 00:52:09;;;;;;;0.10;0.10;;;;;;;;;;5077144;28;20017;-74
2024/01/18 00:54:35;;;;;;;0.10;0.10;;;;;;;;;;5077452;28;20044;-74
2024/01/18 00:57:01;;;;;;;4.35;2.83;;;;;;;;;;5077027;28;20448;-74
2024/01/18 00:59:27;;;;;;;0.10;0.10;;;;;;;;;;5077072;28;20025;-74
2024/01/18 01:01:52;;;;;;;0.10;0.10;;;;;;;;;;5076736;28;20031;-74
2024/01/18 01:04:18;;;;;;;5.30;0.98;;;;;;;;;;5076709;28;20028;-74
2024/01/18 01:06:43;;;;;;;0.10;0.10;;;;;;;;;;5076843;28;20055;-74
2024/01/18 01:09:09;;;;;;;0.10;0.10;;;;;;;;;;5076892;28;20431;-74
2024/01/18 01:11:35;;;;;;;0.10;0.10;;;;;;;;;;5076754;28;20056;-74
2024/01/18 01:14:00;;;;;;;0.10;0.10;;;;;;;;;;5076759;28;20419;-75
2024/01/18 01:16:26;;;;;;;0.10;0.10;;;;;;;;;;5076621;28;20389;-74
2024/01/18 01:18:51;;;;;;;3.35;0.98;;;;;;;;;;5076814;28;20020;-73
2024/01/18 01:21:17;;;;;;;0.10;0.10;;;;;;;;;;5076592;28;20024;-74
2024/01/18 01:23:48;;;;;;;2.97;2.80;;;;;;;;;;5076575;28;20028;-73
2024/01/18 01:26:15;;;;;;;1.65;1.30;;;;;;;;;;5076307;28;20036;-73
2024/01/18 01:28:40;;;;;;;0.95;0.93;;;;;;;;;;5076465;28;20016;-75
2024/01/18 01:31:06;;;;;;;0.25;0.22;;;;;;;;;;5058268;28;20028;-75
2024/01/18 01:33:31;;;;;;;0.65;0.65;;;;;;;;;;5076375;28;20380;-74
2024/01/18 01:35:57;;;;;;;0.10;0.10;;;;;;;;;;5076341;28;20132;-74
2024/01/18 01:38:23;;;;;;;2.67;2.47;;;;;;;;;;5076311;28;20024;-73
2024/01/18 01:40:48;;;;;;;0.10;0.10;;;;;;;;;;5076226;28;20029;-74
2024/01/18 01:43:15;;;;;;;0.20;0.20;;;;;;;;;;5076300;28;20035;-74
2024/01/18 01:45:41;;;;;;;0.10;0.10;;;;;;;;;;5075970;28;20040;-75
2024/01/18 01:48:07;;;;;;;0.10;0.10;;;;;;;;;;5076322;28;20029;-74
2024/01/18 01:50:33;;;;;;;0.10;0.10;;;;;;;;;;5076242;28;20028;-74
2024/01/18 01:52:58;;;;;;;0.10;0.10;;;;;;;;;;5076207;28;20047;-74
2024/01/18 01:55:24;;;;;;;0.10;0.10;;;;;;;;;;5076054;28;20039;-74
2024/01/18 01:57:50;;;;;;;0.10;0.10;;;;;;;;;;5075490;28;20025;-74
2024/01/18 02:00:16;;;;;;;0.10;0.10;;;;;;;;;;5057862;28;20426;-73
2024/01/18 02:02:43;;;;;;;0.10;0.10;;;;;;;;;;5058010;28;20052;-73
2024/01/18 02:05:08;;;;;;;0.10;0.10;;;;;;;;;;5075926;28;20032;-74
2024/01/18 02:07:36;;;;;;;0.25;0.25;;;;;;;;;;5075845;28;20463;-74
2024/01/18 02:10:02;;;;;;;0.10;0.10;;;;;;;;;;5057867;28;20442;-74
2024/01/18 02:12:28;;;;;;;0.10;0.10;;;;;;;;;;5075708;28;20063;-75
2024/01/18 02:14:54;;;;;;;0.10;0.10;;;;;;;;;;5075578;28;20060;-76
2024/01/18 02:17:20;;;;;;;0.10;0.10;;;;;;;;;;5075630;28;20487;-72
2024/01/18 02:19:46;;;;;;;0.10;0.10;;;;;;;;;;5075657;28;20013;-72
2024/01/18 02:22:11;;;;;;;0.10;0.10;;;;;;;;;;5057879;28;20028;-72
2024/01/18 02:24:41;;;;;;;0.10;0.10;;;;;;;;;;5075286;28;20036;-72
2024/01/18 02:27:07;;;;;;;0.20;0.20;;;;;;;;;;5075297;28;20032;-71
2024/01/18 02:29:32;;;;;;;0.10;0.10;;;;;;;;;;5075323;28;20025;-74
2024/01/18 02:31:58;;;;;;;0.10;0.10;;;;;;;;;;5077153;28;20077;-72
2024/01/18 02:34:24;;;;;;;0.10;0.10;;;;;;;;;;5077619;28;20020;-72
2024/01/18 02:36:49;;;;;;;0.10;0.10;;;;;;;;;;5076892;28;20060;-72
2024/01/18 02:39:15;;;;;;;0.10;0.10;;;;;;;;;;5075241;28;20036;-72
2024/01/18 02:41:41;;;;;;;0.10;0.10;;;;;;;;;;5075068;28;20031;-72
2024/01/18 02:44:07;;;;;;;0.20;0.20;;;;;;;;;;5075248;28;20111;-72
2024/01/18 02:46:33;;;;;;;0.10;0.10;;;;;;;;;;5075234;28;20087;-73
2024/01/18 02:48:58;;;;;;;0.10;0.10;;;;;;;;;;5075410;28;20028;-73
2024/01/18 02:51:24;;;;;;;0.10;0.10;;;;;;;;;;5074934;28;20365;-73
2024/01/18 02:53:50;;;;;;;0.10;0.10;;;;;;;;;;5074914;28;20043;-74
2024/01/18 02:56:19;;;;;;;0.50;0.50;;;;;;;;;;5074747;28;20029;-74
2024/01/18 02:58:44;;;;;;;0.20;0.20;;;;;;;;;;5074740;28;20032;-73
2024/01/18 03:01:10;;;;;;;0.10;0.10;;;;;;;;;;5074989;28;20074;-73
2024/01/18 03:03:36;;;;;;;0.10;0.10;;;;;;;;;;5074754;28;20115;-73
2024/01/18 03:06:01;;;;;;;0.10;0.10;;;;;;;;;;5056812;28;20029;-74
2024/01/18 03:08:27;;;;;;;0.10;0.10;;;;;;;;;;5083390;28;20036;-73
2024/01/18 03:10:52;;;;;;;0.10;0.10;;;;;;;;;;5094438;28;20017;-73
2024/01/18 03:13:18;;;;;;;0.10;0.10;;;;;;;;;;5094958;28;20012;-74
2024/01/18 03:15:44;;;;;;;0.10;0.10;;;;;;;;;;5094628;28;20024;-73
2024/01/18 03:18:09;;;;;;;0.10;0.10;;;;;;;;;;5094691;28;20036;-73
2024/01/18 03:20:35;;;;;;;0.10;0.10;;;;;;;;;;5094563;28;20024;-74
2024/01/18 03:23:01;;;;;;;0.10;0.10;;;;;;;;;;5076604;28;20024;-73
2024/01/18 03:25:26;;;;;;;1.45;0.77;;;;;;;;;;5076087;28;20033;-73
2024/01/18 03:27:52;;;;;;;0.10;0.10;;;;;;;;;;5076362;28;20032;-73
2024/01/18 03:30:17;;;;;;;0.20;0.20;;;;;;;;;;5094400;28;20356;-74
2024/01/18 03:32:43;;;;;;;0.10;0.10;;;;;;;;;;5094479;28;20078;-74
2024/01/18 03:35:09;;;;;;;6.55;2.08;;;;;;;;;;5094142;28;20052;-73
2024/01/18 03:37:34;;;;;;;0.10;0.10;;;;;;;;;;5094303;28;20497;-75
2024/01/18 03:40:00;;;;;;;0.10;0.10;;;;;;;;;;5094187;28;20433;-73
2024/01/18 03:42:25;;;;;;;2.22;2.08;;;;;;;;;;5092577;28;20032;-72
2024/01/18 03:44:51;;;;;;;0.10;0.10;;;;;;;;;;5076303;28;20456;-74
2024/01/18 03:47:16;;;;;;;0.10;0.10;;;;;;;;;;5094132;28;20085;-73
2024/01/18 03:49:43;;;;;;;0.10;0.10;;;;;;;;;;5094071;28;20069;-74
2024/01/18 03:52:12;;;;;;;0.10;0.10;;;;;;;;;;5094085;28;20115;-74
2024/01/18 03:54:38;;;;;;;0.10;0.10;;;;;;;;;;5093925;28;20486;-74
2024/01/18 03:57:03;;;;;;;0.10;0.10;;;;;;;;;;5093912;28;20115;-72
2024/01/18 03:59:29;;;;;;;0.10;0.10;;;;;;;;;;5093983;28;20454;-73
2024/01/18 04:01:55;;;;;;;0.10;0.10;;;;;;;;;;5092853;28;20028;-74
2024/01/18 04:04:21;;;;;;;0.10;0.10;;;;;;;;;;5069498;28;20506;-73
2024/01/18 04:06:47;;;;;;;0.10;0.10;;;;;;;;;;5069923;28;20044;-74
2024/01/18 04:09:12;;;;;;;0.10;0.10;;;;;;;;;;5069648;28;20463;-74
2024/01/18 04:11:38;;;;;;;0.10;0.10;;;;;;;;;;5070151;28;20094;-75
2024/01/18 04:14:03;;;;;;;0.10;0.10;;;;;;;;;;5069447;28;20468;-76
2024/01/18 04:16:29;;;;;;;0.10;0.10;;;;;;;;;;5069832;28;20032;-73
2024/01/18 04:18:55;;;;;;;4.38;4.13;;;;;;;;;;5069930;28;20028;-74
2024/01/18 04:21:20;;;;;;;0.10;0.10;;;;;;;;;;5069437;28;20519;-74
2024/01/18 04:23:46;;;;;;;0.10;0.10;;;;;;;;;;5069601;28;20025;-74
2024/01/18 04:26:12;;;;;;;0.20;0.20;;;;;;;;;;5069391;28;20029;-72
2024/01/18 04:28:37;;;;;;;0.10;0.10;;;;;;;;;;5069671;28;20130;-71
2024/01/18 04:31:03;;;;;;;0.10;0.10;;;;;;;;;;5078907;28;20024;-72
2024/01/18 04:33:28;;;;;;;0.10;0.10;;;;;;;;;;5089437;28;20028;-73
2024/01/18 04:35:54;;;;;;;0.10;0.10;;;;;;;;;;5089885;28;20113;-73
2024/01/18 04:38:20;;;;;;;0.10;0.10;;;;;;;;;;5089685;28;20048;-74
2024/01/18 04:40:45;;;;;;;0.10;0.10;;;;;;;;;;5087402;28;20032;-73
2024/01/18 04:43:11;;;;;;;0.10;0.10;;;;;;;;;;5089989;28;20451;-75
2024/01/18 04:45:36;;;;;;;0.10;0.10;;;;;;;;;;5089616;28;20054;-75
2024/01/18 04:48:03;;;;;;;0.10;0.10;;;;;;;;;;5089330;28;20463;-75
2024/01/18 04:50:28;;;;;;;0.20;0.20;;;;;;;;;;5082831;28;20038;-74
2024/01/18 04:52:54;;;;;;;0.20;0.20;;;;;;;;;;5072610;28;20029;-73
2024/01/18 04:55:20;;;;;;;0.10;0.10;;;;;;;;;;5073620;28;20051;-74
2024/01/18 04:57:47;;;;;;;0.10;0.10;;;;;;;;;;5089500;28;20032;-73
2024/01/18 05:00:13;;;;;;;0.10;0.10;;;;;;;;;;5085813;28;20467;-77
2024/01/18 05:02:39;;;;;;;0.10;0.10;;;;;;;;;;5089203;28;20111;-74
2024/01/18 05:05:08;;;;;;;0.10;0.10;;;;;;;;;;5089189;28;20467;-74
2024/01/18 05:07:42;;;;;;;0.15;0.15;;;;;;;;;;5071521;28;20032;-74
2024/01/18 05:10:09;;;;;;;1.10;1.10;;;;;;;;;;5071531;28;20024;-72
2024/01/18 05:12:35;;;;;;;0.10;0.10;;;;;;;;;;5071419;28;20450;-74
2024/01/18 05:15:01;;;;;;;1.33;1.20;;;;;;;;;;5089146;28;20111;-72
2024/01/18 05:17:35;;;;;;;0.10;0.10;;;;;;;;;;5089795;28;20064;-73
2024/01/18 05:20:08;;;;;;;0.75;0.52;;;;;;;;;;5071359;28;20085;-75
2024/01/18 05:22:34;;;;;;;2.33;2.17;;;;;;;;;;5089932;28;20498;-74
2024/01/18 05:25:00;;;;;;;0.10;0.10;;;;;;;;;;5054528;28;20089;-73
2024/01/18 05:27:29;;;;;;;0.10;0.10;;;;;;;;;;5054841;28;20129;-74
2024/01/18 05:29:55;;;;;;;;;;;;;;;;;;5053796;28;20024;-74
2024/01/18 05:32:21;;;;;;;0.10;0.10;;;;;;;;;;5089778;28;19923;-74
2024/01/18 05:34:50;;;;;;;2.90;0.77;;;;;;;;;;5092123;28;20138;-76
2024/01/18 05:37:16;;;;;;;0.10;0.10;;;;;;;;;;5092206;28;20517;-74
2024/01/18 05:39:42;;;;;;;0.20;0.20;;;;;;;;;;5092092;28;20501;-73
2024/01/18 05:42:07;;;;;;;0.10;0.10;;;;;;;;;;5092464;28;20032;-74
2024/01/18 05:44:33;;;;;;;0.10;0.10;;;;;;;;;;5092301;28;20027;-75
2024/01/18 05:46:59;;;;;;;0.10;0.10;;;;;;;;;;5073744;28;20035;-75
2024/01/18 05:49:25;;;;;;;0.10;0.10;;;;;;;;;;5092335;28;20129;-73
2024/01/18 05:51:51;;;;;;;0.20;0.20;;;;;;;;;;5091843;28;20032;-75
2024/01/18 05:54:17;;;;;;;0.10;0.10;;;;;;;;;;5091478;28;20465;-73
2024/01/18 05:56:45;;;;;;;0.15;0.15;;;;;;;;;;5074226;28;20104;-73
2024/01/18 05:59:12;;;;;;;0.10;0.10;;;;;;;;;;5073536;28;20028;-74
2024/01/18 06:01:37;;;;;;;0.13;0.13;;;;;;;;;;5079231;28;20380;-75
2024/01/18 06:04:03;;;;;;;0.10;0.10;;;;;;;;;;5071600;28;20036;-74
2024/01/18 06:06:30;;;;;;;0.10;0.10;;;;;;;;;;5071697;28;20383;-73
2024/01/18 06:08:57;;;;;;;0.10;0.10;;;;;;;;;;5080531;28;20032;-74
2024/01/18 06:11:22;;;;;;;0.10;0.10;;;;;;;;;;5087245;28;20063;-74
2024/01/18 06:13:48;;;;;;;0.10;0.10;;;;;;;;;;5083261;28;20070;-73
2024/01/18 06:16:16;;;;;;;0.10;0.10;;;;;;;;;;5087780;28;20108;-73
2024/01/18 06:18:45;;;;;;;0.10;0.10;;;;;;;;;;5089931;28;20122;-72
2024/01/18 06:21:11;;;;;;;0.10;0.10;;;;;;;;;;5090104;28;20078;-76
2024/01/18 06:23:37;;;;;;;0.10;0.10;;;;;;;;;;5071813;28;20124;-74
2024/01/18 06:26:03;;;;;;;0.10;0.10;;;;;;;;;;5071931;28;20491;-75
2024/01/18 06:28:29;;;;;;;0.38;0.38;;;;;;;;;;5091427;28;20395;-74
2024/01/18 06:30:54;;;;;;;0.43;0.43;;;;;;;;;;5091526;28;20133;-75
2024/01/18 06:33:20;;;;;;;3.10;0.75;;;;;;;;;;5090098;28;20046;-74
2024/01/18 06:35:45;;;;;;;0.10;0.10;;;;;;;;;;5090872;28;20056;-74
2024/01/18 06:38:12;;;;;;;0.30;0.30;;;;;;;;;;5092069;28;20027;-75
2024/01/18 06:40:38;;;;;;;8.27;1.52;;;;;;;;;;5091642;28;20024;-74
2024/01/18 06:43:03;;;;;;;0.90;0.55;;;;;;;;;;5088774;28;20378;-75
2024/01/18 06:45:29;;;;;;;9.05;1.38;;;;;;;;;;5089011;28;20020;-73
2024/01/18 06:47:54;;;;;;;1.73;0.90;;;;;;;;;;5088569;28;20044;-73
2024/01/18 06:50:22;;;;;;;1.35;1.20;;;;;;;;;;5077430;28;20032;-73
2024/01/18 06:52:48;;;;;;;0.75;0.65;;;;;;;;;;5071242;28;20043;-73
2024/01/18 06:55:13;;;;;;;7.72;2.75;;;;;;;;;;5070702;28;20048;-74
2024/01/18 06:57:39;;;;;;;4.47;0.50;;;;;;;;;;5069503;28;20036;-74
2024/01/18 07:00:05;;;;;;;10.35;2.85;;;;;;;;;;5051453;28;20082;-73
2024/01/18 07:02:31;;;;;;;9.05;1.00;;;;;;;;;;5089087;28;20532;-74
2024/01/18 07:04:56;;;;;;;6.82;1.25;;;;;;;;;;5090287;28;20032;-73
2024/01/18 07:07:25;;;;;;;6.60;1.40;;;;;;;;;;5072505;28;20534;-73
2024/01/18 07:09:51;;;;;;;15.18;2.75;;;;;;;;;;5090798;28;20070;-74
2024/01/18 07:12:16;;;;;;;9.40;1.33;;;;;;;;;;5090734;28;20024;-76
2024/01/18 07:14:42;;;;;;;0.45;0.45;;;;;;;;;;5090816;28;20119;-75
2024/01/18 07:17:08;;;;;;;5.32;1.73;;;;;;;;;;5084165;28;20539;-74
2024/01/18 07:19:34;;;;;;;8.68;1.23;;;;;;;;;;5073454;28;20149;-74
2024/01/18 07:21:59;;;;;;;1.88;1.48;;;;;;;;;;5070423;28;20020;-73
2024/01/18 07:24:27;;;;;;;2.92;1.67;;;;;;;;;;5069806;28;20104;-73
2024/01/18 07:26:53;;;;;;;3.55;1.58;;;;;;;;;;5071841;28;20028;-73
2024/01/18 07:29:18;;;;;;;4.43;1.30;;;;;;;;;;5090460;28;20051;-75
2024/01/18 07:31:44;;;;;;;3.50;0.85;;;;;;;;;;5088366;28;20036;-74
2024/01/18 07:34:10;;;;;;;11.65;2.50;;;;;;;;;;5079754;28;20024;-75
2024/01/18 07:36:36;;;;;;;10.90;3.28;;;;;;;;;;5071973;28;20048;-74
2024/01/18 07:39:02;;;;;;;3.05;1.52;;;;;;;;;;5089462;28;20101;-73
2024/01/18 07:41:28;;;;;;;2.38;0.95;;;;;;;;;;5072237;28;20073;-73
2024/01/18 07:43:57;;;;;;;3.72;1.42;;;;;;;;;;5072058;28;20053;-73
2024/01/18 07:46:23;;;;;;;19.23;3.03;;;;;;;;;;5089843;28;20497;-74
2024/01/18 07:48:48;;;;;;;7.88;1.67;;;;;;;;;;5090504;28;20028;-73
2024/01/18 07:51:14;;;;;;;2.47;0.82;;;;;;;;;;5090079;28;20035;-73
2024/01/18 07:53:40;;;;;;;17.88;2.50;;;;;;;;;;5090148;28;20032;-74
2024/01/18 07:56:06;;;;;;;6.32;1.30;;;;;;;;;;5051452;28;20463;-74
2024/01/18 07:58:33;;;;;;;14.00;1.50;;;;;;;;;;5059288;28;20024;-73
2024/01/18 08:00:58;;;;;;;7.00;2.30;;;;;;;;;;5086894;28;20031;-72
2024/01/18 08:03:27;;;;;;;0.50;0.40;;;;;;;;;;5070405;28;20032;-74
2024/01/18 08:05:52;;;;;;;20.65;2.90;;;;;;;;;;5075837;28;20040;-71
2024/01/18 08:08:20;;;;;;;8.38;1.42;;;;;;;;;;5057101;28;20036;-74
2024/01/18 08:10:46;;;;;;;10.15;2.83;;;;;;;;;;5088341;28;20520;-74
2024/01/18 08:13:13;;;;;;;9.02;2.13;;;;;;;;;;5085364;28;20040;-74
2024/01/18 08:15:41;;;;;;;9.40;1.95;;;;;;;;;;5054813;28;20039;-74
2024/01/18 08:18:06;;;;;;;7.13;2.03;;;;;;;;;;5071371;28;20475;-73
2024/01/18 08:20:32;;;;;;;4.10;0.82;;;;;;;;;;5089983;28;20105;-75
2024/01/18 08:22:57;;;;;;;8.20;0.85;;;;;;;;;;5087649;28;20054;-74
2024/01/18 08:25:23;;;;;;;14.85;2.40;;;;;;;;;;5089930;28;20032;-73
2024/01/18 08:27:54;;;;;;;2.90;0.70;;;;;;;;;;5071386;28;20055;-71
2024/01/18 08:30:20;;;;;;;15.75;2.83;;;;;;;;;;5089722;28;20059;-74
2024/01/18 08:32:46;;;;;;;9.82;2.15;;;;;;;;;;5090346;28;20463;-73
2024/01/18 08:35:12;;;;;;;10.45;2.08;;;;;;;;;;5071575;28;20503;-74
2024/01/18 08:37:37;;;;;;;5.72;1.63;;;;;;;;;;5071561;28;20030;-77
2024/01/18 08:40:05;;;;;;;4.65;1.35;;;;;;;;;;5090390;28;20032;-72
2024/01/18 08:42:32;;;;;;;10.75;2.63;;;;;;;;;;5072577;28;20036;-75
2024/01/18 08:44:58;;;;;;;14.55;3.08;;;;;;;;;;5089350;28;20066;-74
2024/01/18 08:47:23;;;;;;;10.63;1.60;;;;;;;;;;5089778;28;20040;-75
2024/01/18 08:49:49;;;;;;;5.20;1.13;;;;;;;;;;5089860;28;20016;-75
2024/01/18 08:52:15;;;;;;;10.70;1.75;;;;;;;;;;5089018;28;20032;-75
2024/01/18 08:54:43;;;;;;;5.82;1.20;;;;;;;;;;5089467;28;20013;-74
2024/01/18 08:57:09;;;;;;;10.50;3.90;;;;;;;;;;5089711;28;20383;-79
2024/01/18 08:59:35;;;;;;;20.08;2.55;;;;;;;;;;5087257;28;20024;-77
2024/01/18 09:02:00;;;;;;;3.55;1.10;;;;;;;;;;5080878;28;20069;-77
2024/01/18 09:04:27;;;;;;;19.77;3.85;;;;;;;;;;5069328;28;20119;-76
2024/01/18 09:06:52;;;;;;;11.98;2.45;;;;;;;;;;5079442;28;20043;-77
2024/01/18 09:09:18;;;;;;;5.82;1.60;;;;;;;;;;5093433;28;20471;-77
2024/01/18 09:11:44;;;;;;;10.30;1.67;;;;;;;;;;5093331;28;20048;-77
2024/01/18 09:14:09;;;;;;;11.93;1.92;;;;;;;;;;5083300;28;20033;-81
2024/01/18 09:16:35;;;;;;;13.73;3.28;;;;;;;;;;5090055;28;20130;-73
2024/01/18 09:19:00;;;;;;;13.13;3.03;;;;;;;;;;5089171;28;20459;-74
2024/01/18 09:21:26;;;;;;;19.63;2.45;;;;;;;;;;5062711;28;20479;-75
2024/01/18 09:23:52;;;;;;;13.85;2.38;;;;;;;;;;5085870;28;20035;-74
2024/01/18 09:26:18;;;;;;;14.57;2.13;;;;;;;;;;5080679;28;20025;-74
2024/01/18 09:28:44;;;;;;;10.70;1.83;;;;;;;;;;5082256;28;20058;-77
2024/01/18 09:31:09;;;;;;;10.70;2.58;;;;;;;;;;5072936;28;20020;-76
2024/01/18 09:33:38;;;;;;;4.85;1.02;;;;;;;;;;5085682;28;20460;-74
2024/01/18 09:36:06;;;;;;;4.07;1.25;;;;;;;;;;5081887;28;20073;-75
2024/01/18 09:38:36;;;;;;;2.88;1.20;;;;;;;;;;5092106;28;20039;-75
2024/01/18 09:41:05;;;;;;;11.30;2.15;;;;;;;;;;5091077;28;20841;-75
2024/01/18 09:43:34;;;;;;;4.57;1.92;;;;;;;;;;5092854;28;20035;-76
2024/01/18 09:46:03;;;;;;;14.60;2.53;;;;;;;;;;5092397;28;20046;-74
2024/01/18 09:48:28;;;;;;;12.70;2.15;;;;;;;;;;5092433;28;20024;-75
2024/01/18 09:50:54;;;;;;;19.00;1.85;;;;;;;;;;5092774;28;20038;-75
2024/01/18 09:53:20;;;;;;;9.40;2.67;;;;;;;;;;5092419;28;20024;-75
2024/01/18 09:55:49;;;;;;;7.88;1.58;;;;;;;;;;5090520;28;20542;-74
2024/01/18 09:58:15;;;;;;;2.35;2.13;;;;;;;;;;5090904;28;20020;-75
2024/01/18 10:00:42;;;;;;;13.48;3.28;;;;;;;;;;5074260;28;20027;-74
2024/01/18 10:03:08;;;;;;;5.53;0.90;;;;;;;;;;5074033;28;20070;-72
2024/01/18 10:05:33;;;;;;;13.57;3.47;;;;;;;;;;5092226;28;20044;-75
2024/01/18 10:07:59;;;;;;;4.63;0.95;;;;;;;;;;5092253;28;20479;-75
2024/01/18 10:10:25;;;;;;;4.82;1.08;;;;;;;;;;5085120;28;20467;-76
2024/01/18 10:12:50;;;;;;;4.30;1.15;;;;;;;;;;5068130;28;20017;-73
2024/01/18 10:15:35;;;;;;;6.63;1.77;;;;;;;;;;5080697;28;20058;-76
2024/01/18 10:18:04;;;;;;;0.20;0.20;;;;;;;;;;5060958;28;20056;-74
2024/01/18 10:20:30;;;;;;;1.25;0.73;;;;;;;;;;5090274;28;20030;-74
2024/01/18 10:22:56;;;;;;;5.32;1.02;;;;;;;;;;5090495;28;20104;-74
2024/01/18 10:25:23;;;;;;;15.68;2.38;;;;;;;;;;5073389;28;20571;-74
2024/01/18 10:27:58;;;;;;;0.30;0.30;;;;;;;;;;5073432;28;20028;-74
2024/01/18 10:30:26;;;;;;;11.75;3.10;;;;;;;;;;5088524;28;20025;-73
2024/01/18 10:32:52;;;;;;;8.38;2.17;;;;;;;;;;5090973;28;20247;-76
2024/01/18 10:35:24;;;;;;;9.68;2.08;;;;;;;;;;5091312;28;20159;-75
2024/01/18 10:37:59;;;;;;;5.72;1.10;;;;;;;;;;5089328;28;20530;-73
2024/01/18 10:40:28;;;;;;;12.90;2.03;;;;;;;;;;5070383;28;20024;-77
2024/01/18 10:42:54;;;;;;;10.25;2.15;;;;;;;;;;5091282;28;20028;-74
2024/01/18 10:45:19;;;;;;;10.27;2.17;;;;;;;;;;5091041;28;20549;-74
2024/01/18 10:47:46;;;;;;;11.13;2.15;;;;;;;;;;5091093;28;20035;-76
2024/01/18 10:50:12;;;;;;;5.75;1.13;;;;;;;;;;5091371;28;20030;-74
2024/01/18 10:52:39;;;;;;;10.55;1.63;;;;;;;;;;5090577;28;20110;-74
2024/01/18 10:55:06;;;;;;;18.83;2.30;;;;;;;;;;5090784;28;20027;-74
2024/01/18 10:57:32;;;;;;;8.07;2.53;;;;;;;;;;5071469;28;20093;-74
2024/01/18 10:59:59;;;;;;;9.23;2.00;;;;;;;;;;5090188;28;20538;-77
2024/01/18 11:02:25;;;;;;;12.23;2.17;;;;;;;;;;5053570;28;20021;-74
2024/01/18 11:04:52;;;;;;;14.88;2.53;;;;;;;;;;5063919;28;20024;-74
2024/01/18 11:07:18;;;;;;;13.43;1.60;;;;;;;;;;5080368;28;20024;-75
2024/01/18 11:09:44;;;;;;;2.95;0.85;;;;;;;;;;5063017;28;20077;-75
2024/01/18 11:12:10;;;;;;;8.55;1.48;;;;;;;;;;5083391;28;20476;-74
2024/01/18 11:14:37;;;;;;;2.58;0.55;;;;;;;;;;5079371;28;20356;-75
2024/01/18 11:17:11;;;;;;;5.40;1.20;;;;;;;;;;5081947;28;20032;-73
2024/01/18 11:19:41;;;;;;;3.70;1.45;;;;;;;;;;5090827;28;20185;-74
2024/01/18 11:22:10;;;;;;;6.05;1.67;;;;;;;;;;5090433;28;20554;-73
2024/01/18 11:24:37;;;;;;;7.35;2.15;;;;;;;;;;5090262;28;20028;-74
2024/01/18 11:27:18;;;;;;;7.38;2.20;;;;;;;;;;5090722;28;20059;-74
2024/01/18 11:29:45;;;;;;;9.15;1.52;;;;;;;;;;5087890;28;20479;-74
2024/01/18 11:32:15;;;;;;;6.65;1.63;;;;;;;;;;5071783;28;20035;-73
2024/01/18 11:34:41;;;;;;;3.50;1.17;;;;;;;;;;5087153;28;20040;-73
2024/01/18 11:37:11;;;;;;;2.97;1.17;;;;;;;;;;5071638;28;20470;-77
2024/01/18 11:39:46;;;;;;;9.57;1.85;;;;;;;;;;5068348;28;20032;-75
2024/01/18 11:42:19;;;;;;;17.75;3.88;;;;;;;;;;5086598;28;20066;-72
2024/01/18 11:45:14;;;;;;;7.72;1.88;;;;;;;;;;5088503;28;20379;-74
2024/01/18 11:47:40;;;;;;;16.83;4.20;;;;;;;;;;5062121;28;20078;-73
2024/01/18 11:50:07;;;;;;;11.10;1.67;;;;;;;;;;5089843;28;20051;-72
2024/01/18 11:52:35;;;;;;;3.95;1.60;;;;;;;;;;5090050;28;20371;-74
2024/01/18 11:55:01;;;;;;;14.30;2.38;;;;;;;;;;5090289;28;20027;-74
2024/01/18 11:57:27;;;;;;;3.92;1.27;;;;;;;;;;5078991;28;20024;-79
2024/01/18 11:59:53;;;;;;;12.63;2.97;;;;;;;;;;5088588;28;20082;-76
2024/01/18 12:02:19;;;;;;;13.77;2.58;;;;;;;;;;5089046;28;20042;-75
2024/01/18 12:04:45;;;;;;;7.28;2.20;;;;;;;;;;5088420;28;20024;-77
2024/01/18 12:07:11;;;;;;;7.47;2.42;;;;;;;;;;5068519;28;20031;-74
2024/01/18 12:09:37;;;;;;;16.50;2.38;;;;;;;;;;5071116;28;20031;-75
2024/01/18 12:12:03;;;;;;;17.92;2.92;;;;;;;;;;5090320;28;20024;-77
2024/01/18 12:14:29;;;;;;;6.93;1.90;;;;;;;;;;5086993;28;20016;-76
2024/01/18 12:16:55;;;;;;;10.60;2.38;;;;;;;;;;5089088;28;20108;-76
2024/01/18 12:19:33;;;;;;;11.68;3.03;;;;;;;;;;5085134;28;20020;-76
2024/01/18 12:22:06;;;;;;;9.00;1.95;;;;;;;;;;5084391;28;20032;-76
2024/01/18 12:24:32;;;;;;;8.90;1.77;;;;;;;;;;5088725;28;20061;-78
2024/01/18 12:26:58;;;;;;;3.03;1.00;;;;;;;;;;5082402;28;20040;-76
2024/01/18 12:29:24;;;;;;;8.10;2.42;;;;;;;;;;5084583;28;20040;-80
2024/01/18 12:31:50;;;;;;;11.63;3.40;;;;;;;;;;5089017;28;20043;-82
2024/01/18 12:34:19;;;;;;;2.17;0.68;;;;;;;;;;5087090;28;20024;-76
2024/01/18 12:36:45;;;;;;;;;;;;;;;;;;5090172;28;20370;-78
2024/01/18 12:39:11;;;;;;;11.88;2.28;;;;;;;;;;5090265;28;19998;-79
2024/01/18 12:41:36;;;;;;;11.48;2.35;;;;;;;;;;5093925;28;20028;-79
2024/01/18 12:44:09;;;;;;;16.33;2.90;;;;;;;;;;5096014;28;20476;-79
2024/01/18 12:46:35;;;;;;;2.20;1.30;;;;;;;;;;5094556;28;20055;-78
2024/01/18 12:49:01;;;;;;;3.10;0.38;;;;;;;;;;5091124;28;20011;-80
2024/01/18 12:51:27;;;;;;;6.25;2.30;;;;;;;;;;5082263;28;20020;-82
2024/01/18 12:53:54;;;;;;;6.93;1.02;;;;;;;;;;5073470;28;20160;-79
2024/01/18 12:56:20;;;;;;;11.65;3.25;;;;;;;;;;5073376;28;20028;-82
2024/01/18 12:58:46;;;;;;;5.13;1.00;;;;;;;;;;5073859;28;20032;-83
2024/01/18 13:01:28;;;;;;;12.52;2.20;;;;;;;;;;5055592;28;20268;-79
2024/01/18 13:04:08;;;;;;;3.17;0.90;;;;;;;;;;5058509;28;20024;-79
2024/01/18 13:06:34;;;;;;;1.00;0.55;;;;;;;;;;5092936;28;20031;-80
2024/01/18 13:09:00;;;;;;;14.95;2.20;;;;;;;;;;5093037;28;20085;-78
2024/01/18 13:11:26;;;;;;;3.60;1.30;;;;;;;;;;5092065;28;20467;-83
2024/01/18 13:13:52;;;;;;;8.77;2.22;;;;;;;;;;5083794;28;20024;-82
2024/01/18 13:16:19;;;;;;;5.00;1.48;;;;;;;;;;5093363;28;20378;-80
2024/01/18 13:18:45;;;;;;;10.18;2.03;;;;;;;;;;5091279;28;20028;-77
2024/01/18 13:21:11;;;;;;;11.10;1.77;;;;;;;;;;5079177;28;20036;-79
2024/01/18 13:23:36;;;;;;;12.60;1.77;;;;;;;;;;5089132;28;20027;-78
2024/01/18 13:26:02;;;;;;;3.85;0.70;;;;;;;;;;5070007;28;20055;-80
2024/01/18 13:28:29;;;;;;;7.65;1.27;;;;;;;;;;5074545;28;20035;-79
2024/01/18 13:30:55;;;;;;;7.38;0.73;;;;;;;;;;5073332;28;20115;-78
2024/01/18 13:33:20;;;;;;;7.40;3.08;;;;;;;;;;5084656;28;20128;-80
2024/01/18 13:35:48;;;;;;;2.72;1.85;;;;;;;;;;5073465;28;20506;-79
2024/01/18 13:38:13;;;;;;;11.07;2.00;;;;;;;;;;5070814;28;20036;-78
2024/01/18 13:40:39;;;;;;;2.22;0.77;;;;;;;;;;5088246;28;20103;-80
2024/01/18 13:43:04;;;;;;;11.57;3.35;;;;;;;;;;5086594;28;20081;-79
2024/01/18 13:45:30;;;;;;;16.23;3.03;;;;;;;;;;5080929;28;20479;-82
2024/01/18 13:47:56;;;;;;;2.85;1.25;;;;;;;;;;5090084;28;20486;-84
2024/01/18 13:50:22;;;;;;;7.60;1.45;;;;;;;;;;5074054;28;20028;-79
2024/01/18 13:52:48;;;;;;;11.70;2.47;;;;;;;;;;5079143;28;20033;-81
2024/01/18 13:55:13;;;;;;;8.57;1.00;;;;;;;;;;5072317;28;20601;-79
2024/01/18 13:57:39;;;;;;;3.20;0.60;;;;;;;;;;5079112;28;20111;-78
2024/01/18 14:00:06;;;;;;;8.02;2.03;;;;;;;;;;5092497;28;20084;-85
2024/01/18 14:02:36;;;;;;;6.50;1.45;;;;;;;;;;5090282;28;20036;-82
2024/01/18 14:05:03;;;;;;;3.83;0.80;;;;;;;;;;5092958;28;20423;-84
2024/01/18 14:07:28;;;;;;;4.32;1.08;;;;;;;;;;5092482;28;20032;-81
2024/01/18 14:09:54;;;;;;;4.60;1.23;;;;;;;;;;5089578;28;20032;-78
2024/01/18 14:12:20;;;;;;;2.83;0.68;;;;;;;;;;5090576;28;20016;-79
2024/01/18 14:14:45;;;;;;;4.40;1.52;;;;;;;;;;5090212;28;20051;-78
2024/01/18 14:17:11;;;;;;;6.10;1.15;;;;;;;;;;5087689;28;20389;-77
2024/01/18 14:19:37;;;;;;;7.18;1.50;;;;;;;;;;5084211;28;20038;-81
2024/01/18 14:22:02;;;;;;;10.32;2.83;;;;;;;;;;5087902;28;20035;-78
2024/01/18 14:24:30;;;;;;;6.90;1.60;;;;;;;;;;5088884;28;20503;-80
2024/01/18 14:26:56;;;;;;;1.75;0.77;;;;;;;;;;5083864;28;20077;-81
2024/01/18 14:29:21;;;;;;;15.68;2.28;;;;;;;;;;5081075;28;20036;-77
2024/01/18 14:31:47;;;;;;;10.98;2.05;;;;;;;;;;5080763;28;20478;-81
2024/01/18 14:34:13;;;;;;;11.05;1.63;;;;;;;;;;5068973;28;20064;-78
2024/01/18 14:36:39;;;;;;;0.43;0.20;;;;;;;;;;5087404;28;20074;-82